Time;durP1;ratioP1;P1;durP2;ratioP2;P2;SDS_P1;SDS_P2;PMS_P1;PMS_P2;Temp;Humidity;BMP_temperature;BMP_pressure;BME280_temperature;BME280_humidity;BME280_pressure;Samples;Min_cycle;Max_cycle;Signal;HPM_P1;HPM_P2
2022/07/05 00:01:18;;;;;;;1.70;1.07;;;17.30;99.90;;;;;;5036186;28;20827;-55
2022/07/05 00:03:45;;;;;;;1.23;1.23;;;17.20;99.90;;;;;;5045379;28;20238;-55
2022/07/05 00:06:12;;;;;;;2.67;1.27;;;17.30;99.90;;;;;;5030937;28;20237;-55
2022/07/05 00:08:39;;;;;;;1.13;1.13;;;17.30;99.90;;;;;;5043710;28;20195;-55
2022/07/05 00:11:07;;;;;;;2.57;1.67;;;17.30;99.90;;;;;;5031700;28;20198;-55
2022/07/05 00:13:34;;;;;;;1.30;1.30;;;17.30;99.90;;;;;;5030837;28;20222;-55
2022/07/05 00:16:01;;;;;;;1.40;1.13;;;17.30;99.90;;;;;;5041906;28;20252;-55
2022/07/05 00:18:29;;;;;;;1.83;1.73;;;17.20;99.90;;;;;;5053354;28;20198;-55
2022/07/05 00:20:56;;;;;;;1.40;1.30;;;17.30;99.90;;;;;;5049969;28;20804;-55
2022/07/05 00:23:23;;;;;;;2.47;1.53;;;17.30;99.90;;;;;;5029877;28;20280;-55
2022/07/05 00:25:50;;;;;;;1.03;1.03;;;17.30;99.90;;;;;;5032536;28;20202;-55
2022/07/05 00:28:17;;;;;;;1.07;1.07;;;17.30;99.90;;;;;;5045147;28;20210;-55
2022/07/05 00:30:44;;;;;;;2.00;1.40;;;17.30;99.90;;;;;;5047377;28;20230;-55
2022/07/05 00:33:11;;;;;;;0.80;0.80;;;17.40;99.90;;;;;;5030443;28;20249;-55
2022/07/05 00:35:39;;;;;;;2.27;1.30;;;17.30;99.90;;;;;;5029935;28;20207;-54
2022/07/05 00:38:06;;;;;;;1.30;1.20;;;17.30;99.90;;;;;;5030060;28;20202;-55
2022/07/05 00:40:33;;;;;;;1.80;1.07;;;17.40;99.90;;;;;;5030383;28;20230;-55
2022/07/05 00:43:01;;;;;;;2.53;1.10;;;17.40;99.90;;;;;;5030992;28;20222;-55
2022/07/05 00:45:27;;;;;;;1.47;1.10;;;17.40;99.90;;;;;;5035120;28;20202;-55
2022/07/05 00:47:54;;;;;;;2.57;1.67;;;17.50;99.90;;;;;;5040877;28;20263;-55
2022/07/05 00:50:21;;;;;;;3.33;1.60;;;17.40;99.90;;;;;;5039404;28;20284;-55
2022/07/05 00:52:53;;;;;;;1.23;1.17;;;17.30;99.90;;;;;;5030415;28;20288;-55
2022/07/05 00:55:20;;;;;;;3.23;1.73;;;17.30;99.90;;;;;;5036899;28;20254;-55
2022/07/05 00:57:47;;;;;;;1.37;1.30;;;17.40;99.90;;;;;;5039964;28;20249;-55
2022/07/05 01:00:14;;;;;;;1.60;1.17;;;17.40;99.90;;;;;;5042894;28;20197;-55
2022/07/05 01:02:41;;;;;;;1.60;1.30;;;17.40;99.90;;;;;;5060189;22;20589;-48
2022/07/05 01:05:08;;;;;;;3.57;1.60;;;17.30;99.90;;;;;;5090938;28;20766;-49
2022/07/05 01:07:36;;;;;;;4.20;2.10;;;17.30;99.90;;;;;;5089939;28;20230;-49
2022/07/05 01:10:05;;;;;;;3.50;1.40;;;17.40;99.90;;;;;;5091217;28;20398;-49
2022/07/05 01:12:32;;;;;;;1.57;1.47;;;17.40;99.90;;;;;;5090453;28;20220;-48
2022/07/05 01:14:59;;;;;;;1.73;1.63;;;17.40;99.90;;;;;;5070683;28;20202;-49
2022/07/05 01:17:29;;;;;;;1.17;1.17;;;17.40;99.90;;;;;;5071042;28;20205;-49
2022/07/05 01:19:56;;;;;;;3.70;1.93;;;17.50;99.90;;;;;;5070990;28;20201;-48
2022/07/05 01:22:27;;;;;;;5.60;1.60;;;17.50;99.90;;;;;;5069150;28;20354;-48
2022/07/05 01:24:55;;;;;;;7.50;3.00;;;17.50;99.90;;;;;;5070790;28;20259;-49
2022/07/05 01:27:22;;;;;;;4.80;1.67;;;17.50;99.90;;;;;;5071529;28;20736;-48
2022/07/05 01:29:49;;;;;;;5.37;1.87;;;17.50;99.90;;;;;;5072250;28;20209;-49
2022/07/05 01:32:17;;;;;;;3.17;1.53;;;17.50;99.90;;;;;;5070217;28;20201;-49
2022/07/05 01:34:44;;;;;;;5.83;2.00;;;17.50;99.90;;;;;;5070829;28;20216;-51
2022/07/05 01:37:11;;;;;;;1.97;1.87;;;17.50;99.90;;;;;;5071490;28;20250;-48
2022/07/05 01:39:39;;;;;;;5.90;2.23;;;17.50;99.90;;;;;;5068955;28;20617;-48
2022/07/05 01:42:08;;;;;;;1.80;1.70;;;17.50;99.90;;;;;;5067977;28;20220;-48
2022/07/05 01:44:35;;;;;;;1.27;1.27;;;17.50;99.90;;;;;;5068690;28;20257;-49
2022/07/05 01:47:06;;;;;;;6.00;2.13;;;17.50;99.90;;;;;;5064049;28;20225;-48
2022/07/05 01:49:42;;;;;;;1.47;1.40;;;17.50;99.90;;;;;;5071053;28;20197;-48
2022/07/05 01:52:10;;;;;;;1.37;1.20;;;17.50;99.90;;;;;;5068105;28;20204;-49
2022/07/05 01:54:38;;;;;;;3.37;1.50;;;17.50;99.90;;;;;;5069428;28;20706;-48
2022/07/05 01:57:07;;;;;;;3.53;1.70;;;17.50;99.90;;;;;;5071831;28;20284;-48
2022/07/05 01:59:35;;;;;;;1.37;1.30;;;17.50;99.90;;;;;;5071912;28;20205;-48
2022/07/05 02:02:02;;;;;;;2.07;1.30;;;17.50;99.90;;;;;;5070152;28;20476;-48
2022/07/05 02:04:30;;;;;;;1.67;1.50;;;17.50;99.90;;;;;;5069877;28;20268;-49
2022/07/05 02:06:57;;;;;;;4.47;1.27;;;17.50;99.90;;;;;;5072806;28;20667;-48
2022/07/05 02:09:24;;;;;;;1.40;1.30;;;17.50;99.90;;;;;;5065380;28;20198;-48
2022/07/05 02:11:52;;;;;;;1.60;1.50;;;17.40;99.90;;;;;;5070641;28;20205;-48
2022/07/05 02:14:20;;;;;;;1.00;0.87;;;17.50;99.90;;;;;;5065217;28;20304;-48
2022/07/05 02:16:48;;;;;;;2.37;1.30;;;17.50;99.90;;;;;;5068199;28;20201;-48
2022/07/05 02:19:15;;;;;;;2.37;1.87;;;17.50;99.90;;;;;;5070052;28;20255;-47
2022/07/05 02:21:42;;;;;;;2.07;1.20;;;17.50;99.90;;;;;;5070806;28;20307;-49
2022/07/05 02:24:09;;;;;;;1.50;1.40;;;17.50;99.90;;;;;;5061105;28;20224;-48
2022/07/05 02:26:36;;;;;;;2.37;1.30;;;17.50;99.90;;;;;;5072994;28;20232;-49
2022/07/05 02:29:05;;;;;;;2.97;1.40;;;17.50;99.90;;;;;;5071541;28;20247;-48
2022/07/05 02:31:34;;;;;;;1.77;1.67;;;17.50;99.90;;;;;;5070962;28;20197;-48
2022/07/05 02:34:01;;;;;;;3.03;2.67;;;17.50;99.90;;;;;;5066434;28;20213;-49
2022/07/05 02:36:28;;;;;;;3.17;2.23;;;17.50;99.90;;;;;;5064755;28;20201;-49
2022/07/05 02:38:55;;;;;;;2.03;1.93;;;17.60;99.90;;;;;;5071447;28;20284;-49
2022/07/05 02:41:22;;;;;;;2.70;1.80;;;17.60;99.90;;;;;;5066039;28;20201;-49
2022/07/05 02:43:49;;;;;;;3.43;2.27;;;17.60;99.90;;;;;;5066478;28;20726;-49
2022/07/05 02:46:16;;;;;;;2.40;2.30;;;17.60;99.90;;;;;;5068418;28;20201;-48
2022/07/05 02:48:45;;;;;;;2.30;1.77;;;17.60;99.90;;;;;;5062858;28;20670;-49
2022/07/05 02:51:12;;;;;;;3.70;1.50;;;17.60;99.90;;;;;;5069106;28;20252;-48
2022/07/05 02:53:39;;;;;;;1.70;1.60;;;17.60;99.90;;;;;;5065295;28;20282;-49
2022/07/05 02:56:06;;;;;;;2.50;1.63;;;17.60;99.90;;;;;;5071379;28;20254;-48
2022/07/05 02:58:33;;;;;;;3.13;2.23;;;17.60;99.90;;;;;;5071324;28;20898;-48
2022/07/05 03:01:00;;;;;;;3.03;1.37;;;17.60;99.90;;;;;;5070249;28;20270;-48
2022/07/05 03:03:27;;;;;;;2.63;1.53;;;17.60;99.90;;;;;;5066899;28;20286;-48
2022/07/05 03:05:56;;;;;;;3.17;1.70;;;17.60;99.90;;;;;;5070380;28;20209;-48
2022/07/05 03:08:23;;;;;;;1.60;1.50;;;17.70;99.90;;;;;;5070801;28;20286;-49
2022/07/05 03:10:50;;;;;;;3.57;1.67;;;17.70;99.90;;;;;;5070696;28;20263;-49
2022/07/05 03:13:17;;;;;;;2.40;1.63;;;17.80;99.90;;;;;;5065799;28;20213;-48
2022/07/05 03:15:44;;;;;;;1.40;1.13;;;17.80;99.90;;;;;;5059932;28;20667;-49
2022/07/05 03:18:11;;;;;;;4.40;2.23;;;17.70;99.90;;;;;;5051181;28;20206;-49
2022/07/05 03:20:38;;;;;;;1.80;1.53;;;17.80;99.90;;;;;;5055213;28;20854;-49
2022/07/05 03:23:06;;;;;;;1.80;1.70;;;17.70;99.90;;;;;;5061008;28;20260;-49
2022/07/05 03:25:33;;;;;;;1.77;1.67;;;17.70;99.90;;;;;;5073892;28;20209;-49
2022/07/05 03:28:00;;;;;;;2.20;1.50;;;17.70;99.90;;;;;;5074134;28;20824;-49
2022/07/05 03:30:27;;;;;;;1.67;1.57;;;17.70;99.90;;;;;;5074035;28;20209;-48
2022/07/05 03:32:54;;;;;;;1.10;1.10;;;17.60;99.90;;;;;;5073810;28;20247;-49
2022/07/05 03:35:21;;;;;;;1.63;1.53;;;17.50;99.90;;;;;;5072139;28;20242;-48
2022/07/05 03:37:48;;;;;;;2.93;1.50;;;17.50;99.90;;;;;;5074681;28;20225;-49
2022/07/05 03:40:16;;;;;;;4.83;2.20;;;17.50;99.90;;;;;;5072929;28;20675;-49
2022/07/05 03:42:43;;;;;;;2.37;1.23;;;17.50;99.90;;;;;;5069863;28;20229;-49
2022/07/05 03:45:11;;;;;;;1.97;1.60;;;17.50;99.90;;;;;;5064338;28;20889;-49
2022/07/05 03:47:38;;;;;;;2.47;1.70;;;17.50;99.90;;;;;;5074592;28;20280;-49
2022/07/05 03:50:06;;;;;;;2.30;2.17;;;17.50;99.90;;;;;;5074492;28;20201;-48
2022/07/05 03:52:33;;;;;;;2.60;1.67;;;17.50;99.90;;;;;;5072846;28;20247;-49
2022/07/05 03:55:00;;;;;;;4.20;1.80;;;17.50;99.90;;;;;;5071926;28;20255;-48
2022/07/05 03:57:28;;;;;;;2.17;2.07;;;17.50;99.90;;;;;;5074168;28;20197;-48
2022/07/05 03:59:56;;;;;;;2.00;1.70;;;17.50;99.90;;;;;;5074170;28;20247;-49
2022/07/05 04:02:23;;;;;;;2.47;2.37;;;17.50;99.90;;;;;;5072682;28;20783;-49
2022/07/05 04:04:50;;;;;;;3.93;1.80;;;17.50;99.90;;;;;;5071857;28;20233;-48
2022/07/05 04:07:17;;;;;;;2.57;2.03;;;17.50;99.90;;;;;;5073418;28;20247;-48
2022/07/05 04:09:44;;;;;;;1.40;1.30;;;17.40;99.90;;;;;;5067678;28;20327;-49
2022/07/05 04:12:11;;;;;;;3.00;2.60;;;17.50;99.90;;;;;;5069294;28;20189;-49
2022/07/05 04:14:39;;;;;;;2.50;1.87;;;17.50;99.90;;;;;;5060215;28;20354;-49
2022/07/05 04:17:06;;;;;;;2.77;1.70;;;17.50;99.90;;;;;;5053490;28;20198;-49
2022/07/05 04:19:33;;;;;;;1.83;1.73;;;17.50;99.90;;;;;;5053231;28;20248;-49
2022/07/05 04:22:00;;;;;;;3.00;1.97;;;17.50;99.90;;;;;;5061121;28;20260;-49
2022/07/05 04:24:27;;;;;;;2.30;2.20;;;17.50;99.90;;;;;;5054269;28;20226;-49
2022/07/05 04:26:54;;;;;;;5.70;5.40;;;17.50;99.90;;;;;;5052964;28;20320;-49
2022/07/05 04:29:22;;;;;;;3.83;3.73;;;17.50;99.90;;;;;;5054620;28;20229;-49
2022/07/05 04:31:50;;;;;;;2.50;2.33;;;17.50;99.90;;;;;;5056625;28;20620;-49
2022/07/05 04:34:17;;;;;;;5.67;3.00;;;17.50;99.90;;;;;;5054078;28;20217;-49
2022/07/05 04:36:44;;;;;;;5.67;2.30;;;17.50;99.90;;;;;;5053016;28;20194;-49
2022/07/05 04:39:11;;;;;;;3.07;2.27;;;17.50;99.90;;;;;;5068494;28;20201;-49
2022/07/05 04:41:38;;;;;;;2.20;2.07;;;17.50;99.90;;;;;;5056674;28;20263;-49
2022/07/05 04:44:05;;;;;;;2.73;2.57;;;17.50;99.90;;;;;;5053251;28;20630;-49
2022/07/05 04:46:32;;;;;;;2.50;2.07;;;17.60;99.90;;;;;;5054156;28;20250;-48
2022/07/05 04:49:00;;;;;;;2.10;1.80;;;17.60;99.90;;;;;;5060689;28;20668;-49
2022/07/05 04:51:28;;;;;;;1.97;1.77;;;17.60;99.90;;;;;;5064427;28;20228;-49
2022/07/05 04:53:55;;;;;;;5.27;1.73;;;17.60;99.90;;;;;;5060322;28;20220;-48
2022/07/05 04:56:22;;;;;;;2.93;1.90;;;17.50;99.90;;;;;;5058750;28;20196;-49
2022/07/05 04:58:50;;;;;;;3.03;2.70;;;17.50;99.90;;;;;;5059605;28;20797;-49
2022/07/05 05:01:17;;;;;;;2.60;2.40;;;17.50;99.90;;;;;;5053553;28;20691;-49
2022/07/05 05:03:44;;;;;;;3.07;2.30;;;17.40;99.90;;;;;;5052640;28;20317;-49
2022/07/05 05:06:14;;;;;;;2.40;2.30;;;17.50;99.90;;;;;;5064365;28;20197;-49
2022/07/05 05:08:41;;;;;;;2.43;2.17;;;17.50;99.90;;;;;;5058474;28;20206;-49
2022/07/05 05:11:08;;;;;;;2.77;2.37;;;17.50;99.90;;;;;;5061214;28;20277;-49
2022/07/05 05:13:35;;;;;;;3.57;3.00;;;17.50;99.90;;;;;;5066947;28;20694;-49
2022/07/05 05:16:03;;;;;;;3.67;3.17;;;17.50;99.90;;;;;;5066838;28;20951;-48
2022/07/05 05:18:30;;;;;;;5.00;4.57;;;17.50;99.90;;;;;;5057238;28;20233;-49
2022/07/05 05:20:57;;;;;;;3.70;3.30;;;17.50;99.90;;;;;;5065329;28;20193;-49
2022/07/05 05:23:25;;;;;;;2.83;2.63;;;17.50;99.90;;;;;;5066153;28;20768;-49
2022/07/05 05:25:53;;;;;;;4.07;3.30;;;17.50;99.90;;;;;;5063089;28;20295;-49
2022/07/05 05:28:20;;;;;;;3.63;2.93;;;17.50;99.90;;;;;;5062072;28;20235;-49
2022/07/05 05:30:47;;;;;;;3.00;2.80;;;17.60;99.90;;;;;;5065500;28;20205;-49
2022/07/05 05:33:14;;;;;;;3.57;3.27;;;17.60;99.90;;;;;;5055564;28;20232;-48
2022/07/05 05:35:41;;;;;;;4.73;3.13;;;17.60;99.90;;;;;;5058488;28;20205;-49
2022/07/05 05:38:10;;;;;;;3.33;2.57;;;17.60;99.90;;;;;;5068279;28;20201;-49
2022/07/05 05:40:40;;;;;;;3.60;2.93;;;17.60;99.90;;;;;;5062087;28;20595;-49
2022/07/05 05:43:07;;;;;;;3.20;2.53;;;17.60;99.90;;;;;;5055765;28;20275;-49
2022/07/05 05:45:34;;;;;;;2.33;2.23;;;17.70;99.90;;;;;;5063162;28;20205;-49
2022/07/05 05:48:01;;;;;;;4.77;2.87;;;17.70;99.90;;;;;;5055208;28;20614;-49
2022/07/05 05:50:30;;;;;;;2.30;2.10;;;17.70;99.90;;;;;;5052759;28;20202;-49
2022/07/05 05:52:57;;;;;;;3.40;2.60;;;17.70;99.90;;;;;;5066766;28;20282;-49
2022/07/05 05:55:25;;;;;;;3.83;2.30;;;17.80;99.90;;;;;;5059134;28;20675;-49
2022/07/05 05:57:54;;;;;;;2.37;2.27;;;17.70;99.90;;;;;;5061677;28;20204;-48
2022/07/05 06:00:22;;;;;;;4.20;2.97;;;17.70;99.90;;;;;;5056695;28;20235;-48
2022/07/05 06:02:50;;;;;;;4.53;2.50;;;17.70;99.90;;;;;;5062196;28;20221;-49
2022/07/05 06:05:17;;;;;;;6.00;2.90;;;17.70;99.90;;;;;;5058002;28;20601;-49
2022/07/05 06:07:49;;;;;;;2.30;2.10;;;17.70;99.90;;;;;;5052720;28;20552;-49
2022/07/05 06:10:18;;;;;;;3.63;2.37;;;17.70;99.90;;;;;;5065909;28;20197;-48
2022/07/05 06:12:46;;;;;;;3.00;2.37;;;17.80;99.90;;;;;;5067431;28;20227;-48
2022/07/05 06:15:14;;;;;;;3.33;3.07;;;17.80;99.90;;;;;;5070068;28;20197;-48
2022/07/05 06:17:41;;;;;;;2.90;2.70;;;17.80;99.90;;;;;;5071789;28;20272;-48
2022/07/05 06:20:11;;;;;;;2.77;2.57;;;17.80;99.90;;;;;;5068152;28;20239;-48
2022/07/05 06:22:39;;;;;;;2.90;2.73;;;17.80;99.90;;;;;;5067399;28;20327;-48
2022/07/05 06:25:07;;;;;;;4.03;3.28;;;17.80;99.90;;;;;;5056758;28;20443;-49
2022/07/05 06:27:39;;;;;;;4.10;2.80;;;17.80;99.90;;;;;;5051449;28;20622;-49
2022/07/05 06:30:08;;;;;;;3.78;3.45;;;17.80;99.90;;;;;;5051277;28;20470;-49
2022/07/05 06:32:37;;;;;;;4.77;3.30;;;17.80;99.90;;;;;;5069717;28;20254;-49
2022/07/05 06:35:04;;;;;;;4.03;3.00;;;17.80;99.90;;;;;;5071290;28;20815;-49
2022/07/05 06:37:42;;;;;;;3.13;2.90;;;17.80;99.90;;;;;;5053537;28;20213;-49
2022/07/05 06:40:11;;;;;;;2.83;2.63;;;17.80;99.90;;;;;;5060484;28;20973;-49
2022/07/05 06:42:38;;;;;;;3.27;2.80;;;17.90;99.90;;;;;;5067633;28;20254;-49
2022/07/05 06:45:06;;;;;;;3.57;3.30;;;18.00;99.90;;;;;;5066879;28;20213;-49
2022/07/05 06:47:33;;;;;;;2.10;2.00;;;18.00;99.90;;;;;;5059873;28;20205;-49
2022/07/05 06:50:03;;;;;;;3.70;2.77;;;18.10;99.90;;;;;;5064291;28;20291;-49
2022/07/05 06:52:31;;;;;;;5.07;2.93;;;18.10;99.90;;;;;;5070953;28;20220;-49
2022/07/05 06:54:58;;;;;;;3.63;3.43;;;18.00;99.90;;;;;;5067025;28;20217;-49
2022/07/05 06:57:25;;;;;;;3.40;3.07;;;18.10;99.90;;;;;;5069715;28;20205;-49
2022/07/05 06:59:52;;;;;;;3.43;2.87;;;18.70;99.90;;;;;;5065897;28;20204;-49
2022/07/05 07:02:20;;;;;;;2.37;2.27;;;20.10;99.90;;;;;;5074308;28;20255;-49
2022/07/05 07:04:47;;;;;;;3.17;2.23;;;21.70;99.90;;;;;;5098704;22;20917;-56
2022/07/05 07:09:59;;;;;;;2.13;1.97;;;24.40;99.90;;;;;;5071205;28;20327;-56
2022/07/05 07:12:27;;;;;;;3.33;1.40;;;24.50;99.90;;;;;;5063052;28;20204;-56
2022/07/05 07:14:54;;;;;;;2.43;2.17;;;24.70;99.90;;;;;;5065099;28;20259;-56
2022/07/05 07:17:21;;;;;;;1.57;1.47;;;24.40;99.90;;;;;;5068697;28;20253;-56
2022/07/05 07:19:48;;;;;;;3.93;1.73;;;24.10;99.90;;;;;;5071472;28;20235;-56
2022/07/05 07:22:16;;;;;;;1.40;1.40;;;23.90;99.90;;;;;;5071700;28;20197;-56
2022/07/05 07:24:43;;;;;;;1.93;1.73;;;23.60;99.90;;;;;;5072684;28;20275;-56
2022/07/05 07:27:10;;;;;;;1.67;1.67;;;23.80;99.90;;;;;;5073743;28;20254;-56
2022/07/05 07:29:40;;;;;;;3.30;2.07;;;24.30;99.90;;;;;;5073519;28;20288;-56
2022/07/05 07:32:08;;;;;;;1.73;1.63;;;25.00;99.90;;;;;;5068121;28;20386;-56
2022/07/05 07:34:36;;;;;;;2.17;1.93;;;25.90;99.90;;;;;;5071034;28;20220;-56
2022/07/05 07:37:04;;;;;;;3.93;1.67;;;26.70;99.90;;;;;;5071141;28;20224;-56
2022/07/05 07:39:33;;;;;;;1.33;1.23;;;27.70;99.90;;;;;;5072276;28;20197;-56
2022/07/05 07:42:00;;;;;;;1.98;1.88;;;28.20;99.90;;;;;;5070774;28;20193;-56
2022/07/05 07:44:27;;;;;;;2.88;1.30;;;28.60;99.90;;;;;;5067797;28;20307;-56
2022/07/05 07:46:54;;;;;;;2.60;1.55;;;29.10;99.90;;;;;;5071056;28;20286;-56
2022/07/05 07:49:21;;;;;;;1.50;1.50;;;29.00;99.90;;;;;;5072463;28;20193;-56
2022/07/05 07:51:48;;;;;;;2.17;2.03;;;28.40;99.90;;;;;;5071632;28;20300;-56
2022/07/05 07:54:15;;;;;;;2.58;2.47;;;27.10;99.90;;;;;;5070618;28;20224;-56
2022/07/05 07:56:44;;;;;;;2.13;2.03;;;26.60;99.90;;;;;;5068293;28;20226;-57
2022/07/05 07:59:11;;;;;;;2.20;1.20;;;26.10;99.90;;;;;;5069840;28;20679;-57
2022/07/05 08:01:38;;;;;;;2.38;2.05;;;25.60;99.90;;;;;;5067790;28;20197;-56
2022/07/05 08:04:05;;;;;;;1.45;1.45;;;25.50;99.90;;;;;;5064375;28;20695;-56
2022/07/05 08:06:32;;;;;;;1.98;1.83;;;25.60;99.90;;;;;;5072460;28;20205;-56
2022/07/05 08:08:59;;;;;;;9.82;2.00;;;26.30;99.90;;;;;;5065998;28;20201;-57
2022/07/05 08:11:26;;;;;;;3.97;1.80;;;27.50;99.90;;;;;;5071555;28;20282;-57
2022/07/05 08:13:54;;;;;;;1.55;1.45;;;27.30;99.90;;;;;;5068279;28;20212;-57
2022/07/05 08:16:21;;;;;;;1.20;1.20;;;27.20;99.90;;;;;;5068930;28;20201;-57
2022/07/05 08:21:35;;;;;;;1.67;1.30;;;26.50;99.90;;;;;;5072549;28;20200;-56
2022/07/05 08:24:03;;;;;;;2.20;1.23;;;26.30;99.90;;;;;;5072839;28;20358;-57
2022/07/05 08:26:31;;;;;;;1.67;1.67;;;26.10;99.90;;;;;;5071629;28;20197;-57
2022/07/05 08:29:01;;;;;;;2.90;2.78;;;25.60;99.90;;;;;;5072420;28;20197;-56
2022/07/05 08:31:29;;;;;;;2.08;1.98;;;25.60;99.90;;;;;;5072026;28;20689;-56
2022/07/05 08:33:57;;;;;;;2.13;2.03;;;25.70;99.90;;;;;;5072772;28;20300;-56
2022/07/05 08:36:24;;;;;;;2.35;2.25;;;25.90;99.90;;;;;;5069775;28;20700;-57
2022/07/05 08:38:51;;;;;;;2.13;1.90;;;26.80;99.90;;;;;;5064379;28;20192;-57
2022/07/05 08:41:20;;;;;;;1.83;1.83;;;27.20;99.90;;;;;;5071818;28;20200;-57
2022/07/05 08:43:48;;;;;;;2.58;2.53;;;27.50;99.90;;;;;;5072290;28;20221;-56
2022/07/05 08:46:18;;;;;;;2.38;2.17;;;27.40;99.90;;;;;;5071201;28;20197;-57
2022/07/05 08:48:51;;;;;;;1.85;1.75;;;26.70;99.90;;;;;;5070770;28;20225;-57
2022/07/05 08:51:20;;;;;;;1.92;1.92;;;26.60;99.90;;;;;;5071806;28;20532;-57
2022/07/05 08:53:48;;;;;;;1.90;1.80;;;26.40;99.90;;;;;;5070908;28;20599;-57
2022/07/05 08:56:16;;;;;;;1.85;1.60;;;26.30;99.90;;;;;;5068843;28;20201;-57
2022/07/05 08:58:44;;;;;;;2.70;1.65;;;26.40;99.90;;;;;;5071987;28;20201;-57
2022/07/05 09:01:13;;;;;;;2.30;2.10;;;26.40;99.90;;;;;;5067633;28;20205;-56
2022/07/05 09:03:44;;;;;;;1.45;1.45;;;26.00;99.90;;;;;;5069815;28;20325;-57
2022/07/05 09:06:12;;;;;;;2.88;1.90;;;26.30;99.90;;;;;;5063723;28;20197;-58
2022/07/05 09:08:41;;;;;;;1.52;1.50;;;27.20;99.90;;;;;;5066017;28;20642;-58
2022/07/05 09:11:09;;;;;;;2.08;1.98;;;27.70;99.90;;;;;;5071105;28;20691;-57
2022/07/05 09:13:38;;;;;;;4.75;2.10;;;28.00;99.90;;;;;;5071948;28;20290;-57
2022/07/05 09:16:06;;;;;;;2.63;2.40;;;28.70;99.90;;;;;;5071199;28;20257;-56
2022/07/05 09:18:45;;;;;;;2.38;2.30;;;29.50;99.90;;;;;;5062511;28;20205;-57
2022/07/05 09:21:17;;;;;;;1.70;1.60;;;29.50;99.90;;;;;;5051217;28;20255;-57
2022/07/05 09:23:44;;;;;;;1.30;1.10;;;29.70;99.90;;;;;;5051620;28;20321;-57
2022/07/05 09:26:11;;;;;;;1.50;1.45;;;30.50;99.90;;;;;;5056096;28;20201;-57
2022/07/05 09:28:38;;;;;;;2.10;2.00;;;31.00;99.90;;;;;;5062661;28;20288;-57
2022/07/05 09:31:06;;;;;;;2.70;1.50;;;31.20;99.90;;;;;;5071185;28;20250;-57
2022/07/05 09:33:32;;;;;;;1.17;1.17;;;31.10;99.90;;;;;;5071468;28;20217;-57
2022/07/05 09:36:02;;;;;;;1.73;1.63;;;31.40;99.90;;;;;;5069417;28;20209;-57
2022/07/05 09:38:30;;;;;;;1.35;1.27;;;31.90;99.90;;;;;;5069674;28;20215;-56
2022/07/05 09:40:58;;;;;;;3.90;2.28;;;32.00;99.90;;;;;;5071281;28;20706;-56
2022/07/05 09:43:26;;;;;;;1.95;1.85;;;31.20;99.90;;;;;;5057727;28;20217;-56
2022/07/05 09:45:58;;;;;;;2.30;2.20;;;31.00;99.90;;;;;;5071527;28;20247;-56
2022/07/05 09:48:26;;;;;;;1.63;1.50;;;29.80;99.90;;;;;;5069092;28;20205;-56
2022/07/05 09:50:53;;;;;;;2.10;1.75;;;29.20;99.90;;;;;;5071228;28;20197;-57
2022/07/05 09:53:21;;;;;;;1.60;1.50;;;28.70;99.90;;;;;;5070509;28;20247;-56
2022/07/05 09:56:02;;;;;;;2.15;2.05;;;27.70;99.90;;;;;;5069993;28;20197;-56
2022/07/05 09:58:30;;;;;;;1.83;1.73;;;27.00;99.90;;;;;;5066053;28;20278;-56
2022/07/05 10:00:57;;;;;;;2.00;1.77;;;26.60;99.90;;;;;;5069100;28;20197;-56
2022/07/05 10:03:24;;;;;;;6.03;3.00;;;26.60;99.90;;;;;;5066233;28;20282;-56
2022/07/05 10:05:51;;;;;;;3.03;2.22;;;26.50;99.90;;;;;;5070947;28;20275;-56
2022/07/05 10:08:20;;;;;;;2.80;2.53;;;26.50;99.90;;;;;;5069887;28;20243;-56
2022/07/05 10:10:51;;;;;;;2.28;2.03;;;26.30;99.90;;;;;;5071074;28;20228;-56
2022/07/05 10:13:18;;;;;;;2.30;1.80;;;26.30;99.90;;;;;;5070364;28;20221;-56
2022/07/05 10:15:46;;;;;;;2.65;1.55;;;26.60;99.90;;;;;;5071057;28;20197;-56
2022/07/05 10:18:17;;;;;;;1.83;1.77;;;26.90;99.90;;;;;;5069199;28;20211;-56
2022/07/05 10:20:45;;;;;;;1.92;1.92;;;27.50;99.90;;;;;;5071002;28;20212;-56
2022/07/05 10:23:15;;;;;;;1.67;1.50;;;27.50;99.90;;;;;;5070530;28;20553;-56
2022/07/05 10:25:43;;;;;;;1.40;1.40;;;28.00;99.90;;;;;;5069764;28;20635;-57
2022/07/05 10:28:12;;;;;;;2.67;1.60;;;28.10;99.90;;;;;;5061306;28;20197;-56
2022/07/05 10:30:39;;;;;;;2.53;2.42;;;28.10;99.90;;;;;;5070590;28;20236;-56
2022/07/05 10:33:08;;;;;;;2.17;2.15;;;28.00;99.90;;;;;;5067752;28;20209;-56
2022/07/05 10:35:35;;;;;;;2.40;2.20;;;28.20;99.90;;;;;;5069565;28;20201;-56
2022/07/05 10:38:05;;;;;;;2.42;1.90;;;28.00;99.90;;;;;;5068634;28;20200;-56
2022/07/05 10:40:34;;;;;;;5.82;2.65;;;27.70;99.90;;;;;;5069167;28;20193;-56
2022/07/05 10:43:03;;;;;;;2.42;2.38;;;27.10;99.90;;;;;;5068389;28;20193;-56
2022/07/05 10:45:33;;;;;;;1.85;1.75;;;27.10;99.90;;;;;;5068112;28;20590;-56
2022/07/05 10:48:20;;;;;;;2.20;2.10;;;27.30;99.90;;;;;;5069770;28;20214;-55
2022/07/05 10:50:51;;;;;;;1.85;1.75;;;27.20;99.90;;;;;;5066454;28;20193;-56
2022/07/05 10:53:20;;;;;;;1.80;1.80;;;26.90;99.90;;;;;;5068267;28;20236;-56
2022/07/05 10:55:58;;;;;;;2.38;1.83;;;26.90;99.90;;;;;;5069093;28;20592;-55
2022/07/05 10:58:28;;;;;;;2.08;1.98;;;26.40;99.90;;;;;;5065923;28;20197;-55
2022/07/05 11:01:44;;;;;;;2.45;2.10;;;26.10;99.90;;;;;;5069262;28;20243;-56
2022/07/05 11:04:32;;;;;;;2.60;2.40;;;26.00;99.90;;;;;;5069041;28;20243;-56
2022/07/05 11:06:59;;;;;;;1.65;1.65;;;25.80;99.90;;;;;;5068975;28;20193;-55
2022/07/05 11:09:26;;;;;;;2.08;2.05;;;25.60;99.90;;;;;;5068858;28;20251;-56
2022/07/05 11:12:08;;;;;;;3.10;2.28;;;25.60;99.90;;;;;;5064661;28;20197;-56
2022/07/05 11:14:37;;;;;;;2.70;2.60;;;25.40;99.90;;;;;;5067957;28;20703;-56
2022/07/05 11:17:29;;;;;;;2.35;2.20;;;25.50;99.90;;;;;;5069060;28;20663;-55
2022/07/05 11:20:10;;;;;;;2.55;2.40;;;25.70;99.90;;;;;;5067828;28;20255;-56
2022/07/05 11:22:39;;;;;;;2.53;2.43;;;25.70;99.90;;;;;;5068962;28;20197;-56
2022/07/05 11:25:08;;;;;;;2.77;2.13;;;25.80;99.90;;;;;;5068556;28;20225;-56
2022/07/05 11:27:36;;;;;;;1.90;1.90;;;25.80;99.90;;;;;;5069857;28;20263;-56
2022/07/05 11:30:04;;;;;;;2.35;1.70;;;26.10;99.90;;;;;;5070438;28;20193;-56
2022/07/05 11:32:38;;;;;;;1.60;1.60;;;26.70;99.90;;;;;;5069409;28;20212;-56
2022/07/05 11:35:20;;;;;;;1.60;1.27;;;26.90;99.90;;;;;;5070472;28;20221;-56
2022/07/05 11:37:59;;;;;;;1.58;1.48;;;27.10;99.90;;;;;;5067445;28;20201;-56
2022/07/05 11:40:33;;;;;;;1.20;1.20;;;27.40;99.90;;;;;;5068905;28;20216;-56
2022/07/05 11:43:02;;;;;;;1.02;1.02;;;27.50;99.90;;;;;;5071535;28;20279;-56
2022/07/05 11:45:29;;;;;;;2.75;1.80;;;27.50;99.90;;;;;;5072319;28;20304;-56
2022/07/05 11:47:58;;;;;;;1.83;1.27;;;27.70;99.90;;;;;;5071185;28;20225;-56
2022/07/05 11:50:32;;;;;;;1.38;1.35;;;27.70;99.90;;;;;;5069178;28;20700;-56
2022/07/05 11:53:00;;;;;;;1.95;1.50;;;27.80;99.90;;;;;;5071779;28;20197;-56
2022/07/05 11:55:28;;;;;;;1.67;1.15;;;27.30;99.90;;;;;;5070823;28;20649;-56
2022/07/05 11:57:56;;;;;;;2.33;1.65;;;27.30;99.90;;;;;;5070572;28;20561;-56
2022/07/05 12:00:31;;;;;;;1.52;1.48;;;27.10;99.90;;;;;;5073181;28;20209;-56
2022/07/05 12:02:59;;;;;;;1.80;1.70;;;27.30;99.90;;;;;;5068741;28;20224;-56
2022/07/05 12:05:32;;;;;;;1.55;1.55;;;27.20;99.90;;;;;;5067240;28;20598;-56
2022/07/05 12:07:59;;;;;;;1.73;1.63;;;27.10;99.90;;;;;;5072119;28;20196;-56
2022/07/05 12:13:11;;;;;;;2.25;1.85;;;26.40;99.90;;;;;;5071135;28;20196;-56
2022/07/05 12:15:39;;;;;;;1.75;1.65;;;26.00;99.90;;;;;;5070517;28;20244;-56
2022/07/05 12:18:08;;;;;;;3.05;1.50;;;26.00;99.90;;;;;;5071596;28;20201;-56
2022/07/05 12:20:38;;;;;;;1.52;1.52;;;26.00;99.90;;;;;;5072105;28;20276;-56
2022/07/05 12:23:06;;;;;;;2.45;1.90;;;26.30;99.90;;;;;;5071240;28;20215;-56
2022/07/05 12:25:35;;;;;;;1.67;1.67;;;26.60;99.90;;;;;;5067968;28;20267;-56
2022/07/05 12:28:06;;;;;;;2.25;1.80;;;26.50;99.90;;;;;;5073471;28;20639;-56
2022/07/05 12:30:33;;;;;;;1.60;1.60;;;26.60;99.90;;;;;;5071714;28;20794;-56
2022/07/05 12:33:02;;;;;;;4.32;1.50;;;26.60;99.90;;;;;;5070814;28;20189;-56
2022/07/05 12:35:41;;;;;;;1.40;1.40;;;26.60;99.90;;;;;;5068764;28;20200;-56
2022/07/05 12:38:14;;;;;;;1.40;1.30;;;26.60;99.90;;;;;;5068966;28;20193;-56
2022/07/05 12:40:42;;;;;;;2.50;1.30;;;26.50;99.90;;;;;;5071758;28;20576;-56
2022/07/05 12:43:11;;;;;;;1.90;1.70;;;26.60;99.90;;;;;;5070713;28;20197;-56
2022/07/05 12:45:39;;;;;;;1.55;1.55;;;26.70;99.90;;;;;;5071407;28;20273;-56
2022/07/05 12:48:07;;;;;;;1.60;1.60;;;26.60;99.90;;;;;;5074578;28;20262;-56
2022/07/05 12:50:50;;;;;;;2.40;1.65;;;26.70;99.90;;;;;;5074667;28;20197;-56
2022/07/05 12:58:50;;;;;;;1.40;1.40;;;26.50;99.90;;;;;;5070652;28;20583;-56
2022/07/05 13:01:25;;;;;;;1.80;1.40;;;26.60;99.90;;;;;;5064492;28;20236;-56
2022/07/05 13:04:08;;;;;;;2.58;1.13;;;26.70;99.90;;;;;;5062749;28;20287;-56
2022/07/05 13:06:48;;;;;;;1.50;1.20;;;26.50;99.90;;;;;;5072474;28;20224;-56
2022/07/05 13:09:16;;;;;;;1.05;0.80;;;26.40;99.90;;;;;;5072051;28;20745;-56